createdAt,value
2018-11-26T05:31:11.391Z,10.25
2018-11-26T05:33:39.053Z,11.38
2018-11-26T05:36:06.655Z,11.38
2018-11-26T05:38:34.222Z,15.03
2018-11-26T05:41:01.970Z,12.60
2018-11-26T05:43:29.570Z,8.58
2018-11-26T05:45:57.206Z,14.63
2018-11-26T05:48:24.826Z,11.08
2018-11-26T05:50:52.604Z,10.70
2018-11-26T05:53:20.811Z,11.75
2018-11-26T05:55:48.446Z,9.03
2018-11-26T05:58:16.460Z,7.72
2018-11-26T06:00:44.155Z,11.48
2018-11-26T06:03:11.813Z,9.15
2018-11-26T06:05:39.462Z,10.70
2018-11-26T06:08:07.286Z,11.95
2018-11-26T06:10:35.946Z,10.93
2018-11-26T06:13:04.062Z,9.55
2018-11-26T06:15:32.005Z,12.80
2018-11-26T06:17:59.716Z,11.88
2018-11-26T06:20:27.484Z,8.90
2018-11-26T06:22:55.188Z,10.28
2018-11-26T06:25:22.934Z,14.18
2018-11-26T06:27:50.663Z,11.90
2018-11-26T06:30:19.290Z,14.28
2018-11-26T06:32:48.246Z,12.85
2018-11-26T06:35:17.180Z,12.33
2018-11-26T06:37:44.831Z,11.78
2018-11-26T06:40:13.252Z,7.80
2018-11-26T06:42:41.159Z,12.40
2018-11-26T06:45:12.375Z,11.95
2018-11-26T06:47:40.790Z,12.07
2018-11-26T06:50:10.136Z,14.55
2018-11-26T06:52:37.768Z,12.55
2018-11-26T06:55:07.022Z,11.15
2018-11-26T06:57:34.711Z,12.78
2018-11-26T07:00:02.697Z,11.45
2018-11-26T07:02:30.293Z,10.40
2018-11-26T07:04:57.925Z,10.20
2018-11-26T07:07:25.518Z,9.90
2018-11-26T07:09:53.129Z,12.33
2018-11-26T07:12:20.851Z,13.68
2018-11-26T07:14:48.548Z,15.68
2018-11-26T07:17:16.148Z,9.33
2018-11-26T07:19:43.699Z,10.80
2018-11-26T07:22:11.395Z,10.05
2018-11-26T07:24:38.955Z,9.70
2018-11-26T07:27:06.565Z,12.98
2018-11-26T07:29:34.336Z,9.58
2018-11-26T07:32:02.080Z,13.08
2018-11-26T07:34:29.902Z,11.57
2018-11-26T07:36:57.612Z,13.58
2018-11-26T07:39:25.316Z,13.80
2018-11-26T07:41:53.720Z,11.95
2018-11-26T07:44:21.311Z,9.35
2018-11-26T07:46:48.844Z,11.43
2018-11-26T07:49:16.519Z,13.78
2018-11-26T07:51:44.062Z,17.90
2018-11-26T07:54:11.835Z,12.30
2018-11-26T07:56:39.439Z,10.53
2018-11-26T07:59:07.079Z,14.50
2018-11-26T08:01:34.719Z,11.93
2018-11-26T08:04:03.101Z,11.65
2018-11-26T08:06:30.842Z,14.28
2018-11-26T08:08:58.550Z,17.23
2018-11-26T08:11:26.258Z,12.53
2018-11-26T08:13:53.997Z,16.12
2018-11-26T08:16:21.727Z,14.40
2018-11-26T08:18:49.372Z,13.68
2018-11-26T08:21:16.970Z,15.40
2018-11-26T08:23:44.586Z,17.52
2018-11-26T08:26:12.186Z,13.00
2018-11-26T08:28:39.806Z,15.95
2018-11-26T08:31:07.615Z,13.93
2018-11-26T08:33:35.674Z,13.10
2018-11-26T08:36:09.168Z,14.25
2018-11-26T08:38:42.499Z,15.35
2018-11-26T08:41:13.989Z,15.32
2018-11-26T08:43:43.944Z,18.60
2018-11-26T08:46:12.841Z,13.85
2018-11-26T08:48:46.180Z,13.83
2018-11-26T08:51:13.782Z,17.92
2018-11-26T08:53:41.460Z,19.50
2018-11-26T08:56:09.159Z,17.17
2018-11-26T08:58:36.854Z,17.80
2018-11-26T09:01:06.068Z,17.65
2018-11-26T09:03:39.176Z,21.73
2018-11-26T09:06:07.215Z,21.42
2018-11-26T09:08:36.842Z,16.42
2018-11-26T09:11:05.812Z,18.40
2018-11-26T09:13:33.422Z,15.80
2018-11-26T09:16:01.921Z,18.30
2018-11-26T09:18:30.079Z,17.80
2018-11-26T09:20:57.838Z,15.68
2018-11-26T09:23:25.438Z,16.62
2018-11-26T09:25:53.121Z,18.15
2018-11-26T09:28:20.859Z,18.62
2018-11-26T09:30:48.556Z,18.30
2018-11-26T09:33:16.530Z,18.90
2018-11-26T09:35:44.127Z,15.60
2018-11-26T09:38:13.067Z,16.45
2018-11-26T09:40:39.459Z,16.73
2018-11-26T09:43:07.448Z,13.85
2018-11-26T09:45:40.040Z,15.30
2018-11-26T09:48:03.461Z,14.90
2018-11-26T09:50:31.766Z,15.58
2018-11-26T09:52:59.479Z,16.87
2018-11-26T09:55:27.890Z,15.80
2018-11-26T09:57:55.524Z,18.60
2018-11-26T10:00:23.762Z,15.88
2018-11-26T10:02:51.941Z,14.83
2018-11-26T10:05:24.104Z,15.78
2018-11-26T10:07:51.817Z,14.87
2018-11-26T10:10:19.637Z,15.10
2018-11-26T10:12:47.488Z,14.63
2018-11-26T10:15:23.006Z,15.18
2018-11-26T10:17:50.805Z,14.93
2018-11-26T10:20:18.578Z,15.28
2018-11-26T10:22:46.848Z,17.37
2018-11-26T10:25:16.598Z,16.93
2018-11-26T10:27:44.340Z,15.20
2018-11-26T10:30:13.444Z,18.00
2018-11-26T10:32:41.435Z,15.75
2018-11-26T10:35:10.504Z,15.40
2018-11-26T10:37:38.217Z,19.62
2018-11-26T10:40:10.338Z,18.45
2018-11-26T10:42:38.208Z,19.42
2018-11-26T10:45:15.067Z,13.78
2018-11-26T10:47:42.791Z,17.55
2018-11-26T10:50:12.987Z,14.38
2018-11-26T10:52:42.698Z,17.25
2018-11-26T10:55:12.321Z,13.83
2018-11-26T10:57:39.898Z,18.90
2018-11-26T11:00:14.043Z,14.63
2018-11-26T11:02:42.544Z,17.80
2018-11-26T11:05:10.545Z,14.07
2018-11-26T11:07:38.284Z,16.93
2018-11-26T11:10:13.559Z,17.55
2018-11-26T11:12:41.262Z,17.27
2018-11-26T11:15:11.946Z,16.50
2018-11-26T11:17:39.837Z,17.45
2018-11-26T11:20:12.970Z,19.52
2018-11-26T11:22:40.674Z,17.85
2018-11-26T11:25:09.563Z,19.87
2018-11-26T11:27:37.229Z,18.70
2018-11-26T11:30:15.805Z,15.72
2018-11-26T11:32:43.471Z,17.70
2018-11-26T11:35:12.997Z,16.12
2018-11-26T11:37:41.518Z,14.58
2018-11-26T11:40:14.003Z,12.63
2018-11-26T11:42:42.416Z,13.35
2018-11-26T11:45:12.811Z,16.62
2018-11-26T11:47:40.508Z,15.68
2018-11-26T11:50:12.601Z,16.50
2018-11-26T11:52:40.229Z,16.45
2018-11-26T11:55:10.391Z,16.17
2018-11-26T11:57:38.072Z,16.85
2018-11-26T12:00:24.773Z,17.82
2018-11-26T12:02:52.368Z,12.70
2018-11-26T12:05:19.980Z,15.45
2018-11-26T12:07:47.781Z,18.50
2018-11-26T12:10:15.447Z,16.30
2018-11-26T12:12:43.246Z,16.10
2018-11-26T12:15:12.451Z,14.43
2018-11-26T12:17:41.101Z,17.90
2018-11-26T12:20:15.476Z,15.83
2018-11-26T12:22:43.743Z,15.65
2018-11-26T12:25:15.607Z,13.78
2018-11-26T12:27:43.509Z,17.25
2018-11-26T12:30:15.472Z,18.80
2018-11-26T12:32:43.146Z,17.40
2018-11-26T12:35:11.657Z,15.90
2018-11-26T12:37:39.392Z,15.93
2018-11-26T12:40:08.796Z,20.45
2018-11-26T12:42:36.447Z,13.50
2018-11-26T12:45:12.846Z,16.10
2018-11-26T12:47:40.487Z,17.70
2018-11-26T12:50:08.860Z,17.48
2018-11-26T12:52:37.774Z,14.20
2018-11-26T12:55:10.022Z,18.95
2018-11-26T12:57:38.767Z,16.35
2018-11-26T13:00:12.345Z,15.13
2018-11-26T13:02:40.044Z,13.93
2018-11-26T13:05:10.200Z,17.60
2018-11-26T13:07:37.933Z,12.93
2018-11-26T13:10:08.964Z,15.65
2018-11-26T13:12:36.744Z,13.20
2018-11-26T13:15:07.880Z,13.20
2018-11-26T13:17:36.291Z,15.10
2018-11-26T13:20:07.075Z,14.20
2018-11-26T13:22:35.318Z,15.70
2018-11-26T13:25:03.035Z,12.75
2018-11-26T13:27:30.737Z,17.60
2018-11-26T13:29:58.444Z,18.50
2018-11-26T13:32:26.797Z,14.10
2018-11-26T13:34:54.539Z,14.87
2018-11-26T13:37:22.164Z,17.27
2018-11-26T13:39:50.083Z,14.47
2018-11-26T13:42:19.203Z,15.98
2018-11-26T13:44:46.842Z,15.60
2018-11-26T13:47:14.611Z,16.52
2018-11-26T13:49:42.309Z,16.62
2018-11-26T13:52:10.667Z,15.32
2018-11-26T13:54:38.861Z,14.40
2018-11-26T13:57:06.563Z,16.65
2018-11-26T13:59:34.367Z,16.52
2018-11-26T14:02:02.158Z,14.20
2018-11-26T14:04:29.872Z,11.93
2018-11-26T14:06:58.947Z,15.40
2018-11-26T14:09:26.952Z,14.90
2018-11-26T14:11:54.632Z,16.02
2018-11-26T14:14:29.048Z,15.30
2018-11-26T14:16:57.074Z,15.98
2018-11-26T14:19:24.949Z,15.08
2018-11-26T14:21:52.911Z,13.35
2018-11-26T14:24:20.581Z,13.00
2018-11-26T14:26:48.536Z,17.80
2018-11-26T14:29:16.368Z,16.27
2018-11-26T14:31:44.837Z,13.43
2018-11-26T14:34:12.911Z,14.80
2018-11-26T14:36:40.789Z,13.22
2018-11-26T14:39:08.607Z,17.60
2018-11-26T14:41:36.236Z,14.93
2018-11-26T14:44:03.969Z,12.75
2018-11-26T14:46:31.953Z,15.13
2018-11-26T14:48:59.645Z,15.83
2018-11-26T14:51:27.473Z,16.48
2018-11-26T14:53:55.302Z,17.27
2018-11-26T14:56:23.104Z,17.00
2018-11-26T14:58:51.370Z,20.60
2018-11-26T15:01:19.379Z,16.48
2018-11-26T15:03:47.285Z,19.20
2018-11-26T15:06:15.271Z,18.23
2018-11-26T15:08:43.067Z,20.08
2018-11-26T15:11:11.382Z,21.35
2018-11-26T15:13:39.949Z,18.75
2018-11-26T15:16:07.845Z,18.73
2018-11-26T15:18:36.218Z,19.70
2018-11-26T15:21:04.273Z,19.85
2018-11-26T15:23:32.231Z,22.75
2018-11-26T15:25:59.848Z,21.57
2018-11-26T15:28:27.591Z,25.60
2018-11-26T15:30:55.742Z,25.77
2018-11-26T15:33:23.935Z,25.15
2018-11-26T15:35:51.671Z,27.82
2018-11-26T15:38:19.422Z,27.58
2018-11-26T15:40:47.172Z,27.40
2018-11-26T15:43:14.852Z,27.95
2018-11-26T15:45:42.488Z,23.45
2018-11-26T15:48:12.492Z,24.50
2018-11-26T15:50:40.497Z,22.07
2018-11-26T15:53:09.133Z,21.48
2018-11-26T15:55:37.322Z,21.62
2018-11-26T15:58:06.108Z,25.00
2018-11-26T16:00:33.977Z,30.17
2018-11-26T16:03:02.283Z,25.45
2018-11-26T16:05:31.064Z,27.52
2018-11-26T16:08:07.749Z,30.15
2018-11-26T16:10:35.523Z,22.07
2018-11-26T16:13:04.921Z,24.72
2018-11-26T16:15:34.927Z,27.87
2018-11-26T16:18:04.904Z,31.82
2018-11-26T16:20:33.269Z,25.43
2018-11-26T16:23:01.156Z,23.80
2018-11-26T16:25:29.426Z,23.12
2018-11-26T16:27:57.062Z,25.95
2018-11-26T16:30:25.266Z,24.20
2018-11-26T16:32:55.373Z,26.33
2018-11-26T16:35:26.479Z,25.45
2018-11-26T16:37:54.184Z,25.77
2018-11-26T16:40:22.632Z,27.80
2018-11-26T16:42:50.657Z,25.40
2018-11-26T16:45:19.592Z,23.25
2018-11-26T16:47:48.939Z,27.10
2018-11-26T16:50:18.156Z,25.32
2018-11-26T16:52:46.586Z,28.52
2018-11-26T16:55:15.116Z,26.02
2018-11-26T16:57:43.019Z,29.12
2018-11-26T17:00:20.634Z,25.68
2018-11-26T17:02:50.428Z,23.20
2018-11-26T17:05:23.639Z,27.85
2018-11-26T17:07:51.436Z,29.40
2018-11-26T17:10:19.221Z,30.52
2018-11-26T17:12:46.886Z,30.65
2018-11-26T17:15:16.803Z,35.28
2018-11-26T17:17:44.881Z,34.08
2018-11-26T17:20:13.571Z,28.70
2018-11-26T17:22:41.310Z,32.45
2018-11-26T17:25:12.758Z,33.20
2018-11-26T17:27:41.092Z,32.63
2018-11-26T17:30:18.960Z,42.40
2018-11-26T17:32:48.607Z,39.13
2018-11-26T17:35:16.870Z,32.98
2018-11-26T17:37:45.258Z,33.80
2018-11-26T17:40:15.411Z,33.00
2018-11-26T17:42:43.165Z,33.30
2018-11-26T17:45:11.999Z,38.10
2018-11-26T17:47:40.544Z,35.10
2018-11-26T17:50:12.090Z,37.80
2018-11-26T17:52:40.051Z,32.63
2018-11-26T17:55:08.634Z,39.23
2018-11-26T17:57:36.312Z,36.75
2018-11-26T18:00:07.734Z,36.75
2018-11-26T18:02:35.536Z,41.15
2018-11-26T18:05:04.223Z,35.05
2018-11-26T18:07:31.956Z,31.87
2018-11-26T18:12:34.053Z,38.42
2018-11-26T18:15:01.909Z,34.88
2018-11-26T18:17:29.673Z,29.77
2018-11-26T18:19:57.447Z,39.63
2018-11-26T18:22:25.094Z,35.95
2018-11-26T18:24:52.850Z,38.63
2018-11-26T18:27:20.530Z,39.75
2018-11-26T18:29:48.210Z,39.42
2018-11-26T18:32:15.820Z,37.30
2018-11-26T18:34:43.424Z,41.63
2018-11-26T18:37:11.772Z,39.13
2018-11-26T18:39:40.467Z,38.83
2018-11-26T18:42:08.179Z,36.38
2018-11-26T18:44:36.615Z,40.85
2018-11-26T18:47:04.855Z,38.92
2018-11-26T18:49:32.948Z,36.00
2018-11-26T18:52:01.592Z,40.03
2018-11-26T18:54:30.301Z,43.08
2018-11-26T18:56:58.235Z,37.30
2018-11-26T18:59:26.098Z,37.55
2018-11-26T19:01:54.794Z,35.13
2018-11-26T19:04:22.636Z,36.17
2018-11-26T19:06:50.463Z,44.08
2018-11-26T19:09:18.277Z,34.33
2018-11-26T19:11:46.164Z,37.33
2018-11-26T19:14:17.323Z,37.80
2018-11-26T19:16:47.215Z,33.73
2018-11-26T19:19:15.449Z,33.80
2018-11-26T19:21:43.317Z,37.98
2018-11-26T19:24:11.700Z,37.40
2018-11-26T19:26:39.530Z,42.48
2018-11-26T19:29:07.434Z,39.15
2018-11-26T19:31:35.261Z,42.00
2018-11-26T19:34:03.153Z,35.38
2018-11-26T19:36:31.548Z,33.88
2018-11-26T19:38:59.823Z,37.80
2018-11-26T19:41:27.805Z,46.45
2018-11-26T19:43:55.632Z,37.93
2018-11-26T19:46:23.410Z,39.92
2018-11-26T19:48:51.303Z,32.70
2018-11-26T19:51:19.168Z,36.80
2018-11-26T19:53:47.021Z,34.33
2018-11-26T19:56:14.989Z,38.38
2018-11-26T19:58:42.958Z,36.63
2018-11-26T20:01:11.785Z,36.35
2018-11-26T20:03:43.960Z,31.87
2018-11-26T20:06:14.289Z,37.95
2018-11-26T20:08:42.773Z,40.48
2018-11-26T20:11:11.161Z,34.95
2018-11-26T20:13:38.958Z,35.05
2018-11-26T20:16:12.485Z,37.08
2018-11-26T20:18:40.472Z,33.58
2018-11-26T20:21:08.332Z,38.90
2018-11-26T20:23:36.122Z,26.80
2018-11-26T20:26:03.873Z,28.27
2018-11-26T20:28:31.676Z,31.50
2018-11-26T20:30:59.565Z,32.48
2018-11-26T20:33:27.494Z,30.17
2018-11-26T20:35:55.827Z,33.65
2018-11-26T20:38:23.672Z,31.62
2018-11-26T20:40:51.588Z,24.72
2018-11-26T20:43:19.440Z,34.35
2018-11-26T20:45:48.669Z,28.95
2018-11-26T20:48:16.490Z,29.48
2018-11-26T20:50:48.913Z,30.88
2018-11-26T20:53:16.974Z,26.40
2018-11-26T20:55:44.914Z,25.62
2018-11-26T20:58:13.902Z,31.35
2018-11-26T21:00:42.016Z,28.17
2018-11-26T21:03:10.721Z,29.63
2018-11-26T21:05:39.645Z,30.60
2018-11-26T21:08:08.221Z,31.25
2018-11-26T21:10:36.204Z,31.17
2018-11-26T21:13:04.009Z,31.02
2018-11-26T21:15:31.851Z,24.15
2018-11-26T21:18:01.128Z,29.80
2018-11-26T21:20:35.643Z,31.75
2018-11-26T21:23:06.053Z,28.38
2018-11-26T21:25:34.421Z,25.12
2018-11-26T21:28:02.123Z,22.17
2018-11-26T21:30:30.629Z,23.73
2018-11-26T21:32:59.642Z,28.07
2018-11-26T21:35:27.473Z,29.23
2018-11-26T21:37:55.229Z,26.00
2018-11-26T21:40:24.201Z,24.55
2018-11-26T21:42:52.092Z,30.20
2018-11-26T21:45:28.434Z,29.80
2018-11-26T21:47:56.225Z,30.52
2018-11-26T21:50:23.846Z,26.02
2018-11-26T21:52:51.480Z,27.07
2018-11-26T21:55:19.711Z,27.73
2018-11-26T21:57:47.397Z,28.85
2018-11-26T22:00:23.989Z,30.62
2018-11-26T22:02:51.803Z,27.95
2018-11-26T22:05:19.759Z,32.75
2018-11-26T22:07:47.465Z,34.98
2018-11-26T22:10:20.011Z,28.30
2018-11-26T22:12:49.046Z,32.40
2018-11-26T22:15:17.381Z,34.60
2018-11-26T22:17:45.049Z,34.27
2018-11-26T22:20:14.502Z,32.63
2018-11-26T22:22:42.308Z,29.15
2018-11-26T22:25:11.094Z,29.37
2018-11-26T22:27:38.941Z,33.28
2018-11-26T22:30:16.045Z,35.50
2018-11-26T22:32:43.734Z,33.23
2018-11-26T22:35:11.756Z,37.08
2018-11-26T22:37:39.617Z,28.77
2018-11-26T22:40:10.280Z,35.83
2018-11-26T22:42:38.938Z,32.98
2018-11-26T22:45:09.663Z,29.42
2018-11-26T22:47:37.411Z,38.02
2018-11-26T22:50:08.716Z,34.50
2018-11-26T22:52:37.102Z,39.08
2018-11-26T22:55:05.441Z,37.40
2018-11-26T22:57:33.047Z,35.68
2018-11-26T23:00:02.139Z,35.00
2018-11-26T23:02:29.790Z,33.00
2018-11-26T23:04:57.722Z,32.58
2018-11-26T23:07:25.402Z,34.40
2018-11-26T23:09:53.103Z,34.90
2018-11-26T23:12:21.427Z,34.75
2018-11-26T23:14:49.192Z,36.20
2018-11-26T23:17:17.467Z,32.33
2018-11-26T23:19:45.151Z,30.45
2018-11-26T23:24:46.644Z,32.73
2018-11-26T23:27:17.449Z,36.50
2018-11-26T23:29:45.503Z,41.20
2018-11-26T23:32:13.454Z,41.50
2018-11-26T23:34:41.208Z,42.53
2018-11-26T23:37:11.193Z,40.85
2018-11-26T23:39:40.549Z,36.15
2018-11-26T23:42:08.249Z,36.83
2018-11-26T23:44:36.176Z,35.90
2018-11-26T23:47:04.245Z,36.65
2018-11-26T23:49:31.927Z,35.48
2018-11-26T23:51:59.497Z,36.83
2018-11-26T23:54:27.372Z,38.17
2018-11-26T23:56:54.996Z,36.93
2018-11-26T23:59:23.615Z,36.53
